Time;durP1;ratioP1;P1;durP2;ratioP2;P2;SDS_P1;SDS_P2;PMS_P1;PMS_P2;Temp;Humidity;BMP_temperature;BMP_pressure;BME280_temperature;BME280_humidity;BME280_pressure;Samples;Min_cycle;Max_cycle;Signal;HPM_P1;HPM_P2
2023/04/25 00:00:39;;;;;;;18.58;3.38;;;;;;;-143.48;97.37;118439.88;5054512;28;20528;-31
2023/04/25 00:03:05;;;;;;;20.00;3.70;;;;;;;-143.48;97.40;118439.88;5054309;28;20091;-31
2023/04/25 00:05:31;;;;;;;17.85;3.80;;;;;;;-143.48;96.94;118439.88;5054397;28;20031;-32
2023/04/25 00:07:57;;;;;;;18.50;4.18;;;;;;;-143.48;96.52;118439.88;5054451;28;20017;-31
2023/04/25 00:10:22;;;;;;;11.02;3.55;;;;;;;-143.48;95.65;118439.88;5053841;28;20047;-32
2023/04/25 00:12:48;;;;;;;17.83;3.03;;;;;;;-143.48;95.37;118439.88;5054365;28;20033;-32
2023/04/25 00:15:14;;;;;;;8.52;2.83;;;;;;;-143.48;96.29;118439.88;5054244;28;20021;-32
2023/04/25 00:17:39;;;;;;;16.65;3.25;;;;;;;-143.48;95.88;118439.88;5053368;28;20092;-32
2023/04/25 00:20:06;;;;;;;14.85;4.15;;;;;;;-143.48;96.91;118439.88;5054107;28;20039;-32
2023/04/25 00:22:33;;;;;;;16.70;3.40;;;;;;;-143.48;96.65;118439.88;5054154;28;20107;-31
2023/04/25 00:25:00;;;;;;;13.00;3.53;;;;;;;-143.48;97.08;118439.88;5054170;28;20025;-32
2023/04/25 00:27:26;;;;;;;13.32;3.92;;;;;;;-143.48;96.81;118439.88;5054106;28;20043;-32
2023/04/25 00:29:51;;;;;;;18.70;4.20;;;;;;;-143.48;97.65;118439.88;5053820;28;20079;-32
2023/04/25 00:32:16;;;;;;;15.38;3.28;;;;;;;-143.48;96.68;118439.88;5053986;28;20020;-31
2023/04/25 00:34:42;;;;;;;21.88;3.40;;;;;;;-143.48;97.01;118439.88;5053631;28;20060;-32
2023/04/25 00:37:07;;;;;;;12.57;3.60;;;;;;;-143.48;97.55;118439.88;5053582;28;20123;-32
2023/04/25 00:39:32;;;;;;;15.48;3.17;;;;;;;-143.48;96.92;118439.88;5053849;28;20096;-32
2023/04/25 00:41:58;;;;;;;20.27;3.30;;;;;;;-143.48;96.88;118439.88;5054024;28;20029;-31
2023/04/25 00:44:24;;;;;;;15.55;3.67;;;;;;;-143.48;97.49;118439.88;5053544;28;20024;-32
2023/04/25 00:46:50;;;;;;;15.23;3.10;;;;;;;-143.48;98.00;118439.88;5053549;28;20060;-32
2023/04/25 00:49:16;;;;;;;19.88;3.67;;;;;;;-143.48;98.30;118439.88;5053468;28;20033;-32
2023/04/25 00:51:43;;;;;;;13.40;3.25;;;;;;;-143.48;97.49;118439.88;5053732;28;20440;-32
2023/04/25 00:54:09;;;;;;;23.08;3.80;;;;;;;-143.48;97.38;118439.88;5053479;28;20104;-32
2023/04/25 00:56:35;;;;;;;11.73;3.03;;;;;;;-143.48;97.33;118439.88;5053705;28;20479;-31
2023/04/25 00:59:00;;;;;;;18.20;3.28;;;;;;;-143.48;96.74;118439.88;5053324;28;20059;-32
2023/04/25 01:01:25;;;;;;;22.02;3.35;;;;;;;-143.48;96.72;118439.88;5054113;28;20078;-32
2023/04/25 01:03:53;;;;;;;15.40;3.13;;;;;;;-143.48;95.95;118439.88;5053004;28;20131;-32
2023/04/25 01:06:19;;;;;;;24.77;3.45;;;;;;;-143.48;95.57;118439.88;5053553;28;20387;-32
2023/04/25 01:08:44;;;;;;;16.58;3.33;;;;;;;-143.48;95.79;118439.88;5053588;28;20017;-32
2023/04/25 01:11:10;;;;;;;21.10;3.05;;;;;;;-143.48;95.21;118439.88;5053128;28;20037;-31
2023/04/25 01:13:35;;;;;;;14.63;3.08;;;;;;;-143.48;94.63;118439.88;5035314;28;20021;-31
2023/04/25 01:16:02;;;;;;;14.68;2.80;;;;;;;-143.48;95.05;118439.88;5053284;28;20024;-31
2023/04/25 01:18:28;;;;;;;15.80;2.92;;;;;;;-143.48;96.15;118439.88;5053703;28;20020;-32
2023/04/25 01:20:54;;;;;;;23.95;3.88;;;;;;;-143.48;96.96;118439.88;5053390;28;20029;-32
2023/04/25 01:23:21;;;;;;;13.65;3.10;;;;;;;-143.48;95.54;118439.88;5053380;28;20108;-32
2023/04/25 01:25:48;;;;;;;14.27;3.22;;;;;;;-143.48;95.49;118439.88;5053052;28;20083;-32
2023/04/25 01:28:13;;;;;;;11.15;2.63;;;;;;;-143.48;94.81;118439.88;5054064;28;20395;-32
2023/04/25 01:30:39;;;;;;;17.45;3.03;;;;;;;-143.48;96.47;118439.88;5057428;28;20071;-32
2023/04/25 01:33:05;;;;;;;18.00;2.97;;;;;;;-143.48;96.04;118439.88;5057145;28;20083;-32
2023/04/25 01:35:31;;;;;;;15.20;2.80;;;;;;;-143.48;96.73;118439.88;5056943;28;20032;-31
2023/04/25 01:37:57;;;;;;;12.32;2.83;;;;;;;-143.48;95.39;118439.88;5057158;28;20029;-32
2023/04/25 01:40:24;;;;;;;17.23;2.90;;;;;;;-143.48;95.60;118439.88;5057141;28;20112;-32
2023/04/25 01:42:50;;;;;;;14.82;2.75;;;;;;;-143.48;96.44;118439.88;5057452;28;20025;-32
2023/04/25 01:45:16;;;;;;;15.75;3.40;;;;;;;-143.48;97.17;118439.88;5057134;28;20151;-32
2023/04/25 01:47:43;;;;;;;12.90;2.67;;;;;;;-143.48;96.74;118439.88;5057004;28;20036;-31
2023/04/25 01:50:09;;;;;;;13.40;3.05;;;;;;;-143.48;97.05;118439.88;5056760;28;20063;-32
2023/04/25 01:52:35;;;;;;;13.63;2.88;;;;;;;-143.48;96.77;118439.88;5057079;28;20075;-32
2023/04/25 01:55:02;;;;;;;13.40;2.85;;;;;;;-143.48;97.99;118439.88;5056632;28;20025;-32
2023/04/25 01:57:27;;;;;;;11.02;2.78;;;;;;;-143.48;97.96;118439.88;5056580;28;20021;-32
2023/04/25 02:00:02;;;;;;;14.13;3.38;;;;;;;-143.48;97.45;118439.88;5056966;28;20037;-31
2023/04/25 02:02:28;;;;;;;12.93;3.10;;;;;;;-143.48;97.14;118439.88;5056717;28;20025;-32
2023/04/25 02:04:54;;;;;;;14.27;2.70;;;;;;;-143.48;97.44;118439.88;5056796;28;20356;-32
2023/04/25 02:07:20;;;;;;;30.40;3.95;;;;;;;-143.48;97.52;118439.88;5056637;28;20463;-31
2023/04/25 02:09:45;;;;;;;14.55;3.28;;;;;;;-143.48;96.97;118439.88;5056149;28;20103;-31
2023/04/25 02:12:11;;;;;;;14.85;3.10;;;;;;;-143.48;97.41;118439.88;5056407;28;20356;-32
2023/04/25 02:14:36;;;;;;;15.40;3.35;;;;;;;-143.48;98.30;118439.88;5056534;28;20017;-32
2023/04/25 02:17:01;;;;;;;15.43;2.70;;;;;;;-143.48;97.50;118439.88;5056621;28;20029;-32
2023/04/25 02:19:27;;;;;;;12.73;2.90;;;;;;;-143.48;97.52;118439.88;5056538;28;20455;-31
2023/04/25 02:21:52;;;;;;;15.48;2.97;;;;;;;-143.48;97.18;118439.88;5056344;28;20169;-32
2023/04/25 02:24:17;;;;;;;12.65;3.10;;;;;;;-143.48;97.97;118439.88;5056394;28;20379;-32
2023/04/25 02:26:43;;;;;;;17.10;3.28;;;;;;;-143.48;98.15;118439.88;5056122;28;20109;-32
2023/04/25 02:29:09;;;;;;;15.88;3.13;;;;;;;-143.48;97.28;118439.88;5056757;28;20052;-31
2023/04/25 02:31:35;;;;;;;16.70;3.25;;;;;;;-143.48;97.54;118439.88;5056166;28;20032;-32
2023/04/25 02:34:00;;;;;;;11.57;2.72;;;;;;;-143.48;97.12;118439.88;5056134;28;20079;-32
2023/04/25 02:36:26;;;;;;;13.10;3.03;;;;;;;-143.48;97.30;118439.88;5056206;28;20119;-31
2023/04/25 02:38:51;;;;;;;15.88;2.97;;;;;;;-143.48;97.75;118439.88;5055850;28;20099;-32
2023/04/25 02:41:17;;;;;;;13.23;3.00;;;;;;;-143.48;98.14;118439.88;5054764;28;20485;-32
2023/04/25 02:43:43;;;;;;;18.13;3.33;;;;;;;-143.48;98.58;118439.88;5055649;28;20025;-32
2023/04/25 02:46:08;;;;;;;12.95;2.97;;;;;;;-143.48;98.84;118439.88;5037808;28;20124;-32
2023/04/25 02:48:33;;;;;;;13.77;3.40;;;;;;;-143.48;98.34;118439.88;5055706;28;20479;-32
2023/04/25 02:50:58;;;;;;;16.60;2.92;;;;;;;-143.48;98.45;118439.88;5055691;28;20029;-32
2023/04/25 02:53:24;;;;;;;12.80;3.72;;;;;;;-143.48;97.98;118439.88;5055846;28;20074;-32
2023/04/25 02:55:49;;;;;;;13.65;3.08;;;;;;;-143.48;98.45;118439.88;5055741;28;20025;-32
2023/04/25 02:58:15;;;;;;;15.75;3.10;;;;;;;-143.48;97.80;118439.88;5055497;28;20028;-32
2023/04/25 03:00:40;;;;;;;17.90;3.42;;;;;;;-143.48;97.37;118439.88;5055428;28;20052;-31
2023/04/25 03:03:06;;;;;;;17.65;3.60;;;;;;;-143.48;98.39;118439.88;5055737;28;20053;-31
2023/04/25 03:05:31;;;;;;;14.13;3.20;;;;;;;-143.48;98.55;118439.88;5055357;28;20021;-32
2023/04/25 03:07:56;;;;;;;13.75;3.30;;;;;;;-143.48;98.47;118439.88;5055332;28;20033;-31
2023/04/25 03:10:21;;;;;;;17.35;3.83;;;;;;;-143.48;99.04;118439.88;5055265;28;20049;-31
2023/04/25 03:12:47;;;;;;;16.90;2.97;;;;;;;-143.48;97.37;118439.88;5055595;28;20104;-32
2023/04/25 03:15:12;;;;;;;15.43;3.15;;;;;;;-143.48;97.17;118439.88;5055411;28;20021;-31
2023/04/25 03:17:37;;;;;;;25.05;3.10;;;;;;;-143.48;95.78;118439.88;5055079;28;20036;-32
2023/04/25 03:20:04;;;;;;;16.48;2.92;;;;;;;-143.48;95.31;118439.88;5055360;28;20106;-31
2023/04/25 03:22:29;;;;;;;16.40;3.25;;;;;;;-143.48;95.44;118439.88;5055352;28;20464;-32
2023/04/25 03:24:54;;;;;;;11.57;2.50;;;;;;;-143.48;96.81;118439.88;5055272;28;20021;-32
2023/04/25 03:27:19;;;;;;;12.75;3.17;;;;;;;-143.48;95.08;118439.88;5055388;28;20457;-32
2023/04/25 03:29:45;;;;;;;13.35;2.63;;;;;;;-143.48;94.74;118439.88;5055212;28;20025;-31
2023/04/25 03:32:10;;;;;;;11.10;3.10;;;;;;;-143.48;94.21;118439.88;5055193;28;20125;-31
2023/04/25 03:34:35;;;;;;;10.27;2.40;;;;;;;-143.48;95.28;118439.88;5055048;28;20047;-32
2023/04/25 03:37:01;;;;;;;11.05;2.72;;;;;;;-143.48;93.55;118439.88;5037095;28;20025;-32
2023/04/25 03:39:26;;;;;;;13.25;2.60;;;;;;;-143.48;93.14;118439.88;5054937;28;20163;-32
2023/04/25 03:41:51;;;;;;;9.27;3.28;;;;;;;-143.48;93.41;118439.88;5054982;28;20025;-31
2023/04/25 03:44:17;;;;;;;9.38;2.28;;;;;;;-143.48;93.18;118439.88;5054987;28;20021;-32
2023/04/25 03:46:42;;;;;;;7.30;2.03;;;;;;;-143.48;92.63;118439.88;5055677;28;20086;-32
2023/04/25 03:49:08;;;;;;;10.73;2.10;;;;;;;-143.48;93.65;118439.88;5054776;28;20113;-31
2023/04/25 03:51:33;;;;;;;12.20;2.13;;;;;;;-143.48;91.80;118439.88;5054628;28;20361;-32
2023/04/25 03:53:58;;;;;;;13.65;2.58;;;;;;;-143.48;89.71;118439.88;5054528;28;20471;-32
2023/04/25 03:56:24;;;;;;;13.80;2.22;;;;;;;-143.48;89.10;118439.88;5054637;28;20136;-31
2023/04/25 03:58:50;;;;;;;13.45;2.30;;;;;;;-143.48;88.84;118439.88;5054336;28;20060;-31
2023/04/25 04:01:15;;;;;;;9.40;2.10;;;;;;;-143.48;88.26;118439.88;5054290;28;20033;-34
2023/04/25 04:03:40;;;;;;;11.35;2.45;;;;;;;-143.48;89.39;118439.88;5054493;28;20048;-32
2023/04/25 04:06:07;;;;;;;16.48;3.05;;;;;;;-143.48;90.35;118439.88;5054607;28;20025;-31
2023/04/25 04:08:33;;;;;;;11.70;2.10;;;;;;;-143.48;90.57;118439.88;5036385;28;20048;-32
2023/04/25 04:10:59;;;;;;;14.10;2.67;;;;;;;-143.48;91.41;118439.88;5053884;28;20146;-32
2023/04/25 04:13:28;;;;;;;10.38;2.25;;;;;;;-143.48;89.88;118439.88;5054112;28;20036;-32
2023/04/25 04:15:53;;;;;;;14.93;2.30;;;;;;;-143.48;90.82;118439.88;5054251;28;20119;-31
2023/04/25 04:18:19;;;;;;;10.50;2.22;;;;;;;-143.48;90.50;118439.88;5054214;28;20518;-32
2023/04/25 04:20:44;;;;;;;12.05;2.63;;;;;;;-143.48;91.26;118439.88;5053896;28;20108;-32
2023/04/25 04:23:10;;;;;;;11.30;2.30;;;;;;;-143.48;92.73;118439.88;5053726;28;20103;-31
2023/04/25 04:25:36;;;;;;;13.93;2.17;;;;;;;-143.48;92.11;118439.88;5054063;28;20013;-32
2023/04/25 04:28:01;;;;;;;11.73;2.33;;;;;;;-143.48;91.80;118439.88;5054080;28;20029;-32
2023/04/25 04:30:29;;;;;;;8.70;2.15;;;;;;;-143.48;92.21;118439.88;5054495;28;20056;-32
2023/04/25 04:32:55;;;;;;;8.88;2.00;;;;;;;-143.48;91.32;118439.88;5053866;28;20037;-32
2023/04/25 04:35:21;;;;;;;8.05;2.20;;;;;;;-143.48;91.59;118439.88;5053795;28;20025;-31
2023/04/25 04:37:47;;;;;;;9.30;2.00;;;;;;;-143.48;91.92;118439.88;5053624;28;20100;-32
2023/04/25 04:40:15;;;;;;;10.35;2.22;;;;;;;-143.48;92.96;118439.88;5053863;28;20025;-32
2023/04/25 04:42:41;;;;;;;9.65;2.05;;;;;;;-143.48;91.80;118439.88;5053766;28;20361;-32
2023/04/25 04:45:06;;;;;;;15.32;2.30;;;;;;;-143.48;91.00;118439.88;5053695;28;20104;-32
2023/04/25 04:47:32;;;;;;;9.25;2.33;;;;;;;-143.48;91.87;118439.88;5053741;28;20103;-32
2023/04/25 04:49:57;;;;;;;12.57;2.15;;;;;;;-143.48;90.62;118439.88;5053743;28;20435;-32
2023/04/25 04:52:23;;;;;;;9.32;2.30;;;;;;;-143.48;90.88;118439.88;5053385;28;20027;-32
2023/04/25 04:54:48;;;;;;;9.23;2.30;;;;;;;-143.48;89.36;118439.88;5053210;28;20124;-32
2023/04/25 04:57:13;;;;;;;10.82;2.08;;;;;;;-143.48;88.82;118439.88;5053577;28;20020;-31
2023/04/25 04:59:39;;;;;;;8.02;1.92;;;;;;;-143.48;88.74;118439.88;5053239;28;20031;-31
2023/04/25 05:02:04;;;;;;;7.93;1.70;;;;;;;-143.48;86.66;118439.88;5053892;28;20028;-31
2023/04/25 05:04:29;;;;;;;7.00;1.73;;;;;;;-143.48;87.47;118439.88;5052987;28;20070;-32
2023/04/25 05:06:55;;;;;;;7.68;2.00;;;;;;;-143.48;89.98;118439.88;5053173;28;20064;-32
2023/04/25 05:09:20;;;;;;;9.65;1.75;;;;;;;-143.48;90.23;118439.88;5053467;28;20110;-31
2023/04/25 05:11:45;;;;;;;5.25;2.20;;;;;;;-143.48;89.32;118439.88;5053116;28;20507;-32
2023/04/25 05:14:11;;;;;;;12.00;1.98;;;;;;;-143.48;87.54;118439.88;5053409;28;20163;-32
2023/04/25 05:16:36;;;;;;;8.88;1.90;;;;;;;-143.48;84.37;118439.88;5053152;28;20427;-32
2023/04/25 05:19:01;;;;;;;13.07;2.10;;;;;;;-143.48;84.15;118439.88;5053248;28;20032;-32
2023/04/25 05:21:27;;;;;;;12.13;2.08;;;;;;;-143.48;82.53;118439.88;5053266;28;20032;-32
2023/04/25 05:23:54;;;;;;;10.68;2.38;;;;;;;-143.48;82.91;118439.88;5053229;28;20375;-32
2023/04/25 05:26:20;;;;;;;8.38;1.55;;;;;;;-143.48;85.11;118439.88;5053052;28;20025;-32
2023/04/25 05:28:46;;;;;;;4.57;1.60;;;;;;;-143.48;86.79;118439.88;5052991;28;20418;-32
2023/04/25 05:31:11;;;;;;;7.57;1.75;;;;;;;-143.48;85.82;118439.88;5053300;28;20028;-31
2023/04/25 05:33:37;;;;;;;11.32;1.77;;;;;;;-143.48;85.43;118439.88;5035414;28;20040;-32
2023/04/25 05:36:02;;;;;;;10.30;1.70;;;;;;;-143.48;83.45;118439.88;5053234;28;20029;-32
2023/04/25 05:38:28;;;;;;;11.52;2.90;;;;;;;-143.48;83.02;118439.88;5052922;28;20096;-31
2023/04/25 05:40:53;;;;;;;8.95;1.70;;;;;;;-143.48;86.09;118439.88;5052851;28;20032;-31
2023/04/25 05:43:18;;;;;;;5.88;1.58;;;;;;;-143.48;84.75;118439.88;5052889;28;20036;-31
2023/04/25 05:45:44;;;;;;;7.38;1.63;;;;;;;-143.48;84.52;118439.88;5053144;28;20029;-32
2023/04/25 05:48:09;;;;;;;18.40;2.15;;;;;;;-143.48;84.01;118439.88;5052758;28;20379;-32
2023/04/25 05:50:34;;;;;;;6.82;2.13;;;;;;;-143.48;84.90;118439.88;5053048;28;20017;-32
2023/04/25 05:53:00;;;;;;;10.20;2.35;;;;;;;-143.48;85.67;118439.88;5053014;28;20503;-31
2023/04/25 05:55:25;;;;;;;16.55;3.00;;;;;;;-143.48;83.03;118439.88;5052974;28;20025;-32
2023/04/25 05:57:50;;;;;;;10.48;2.25;;;;;;;-143.48;83.17;118439.88;5053128;28;20053;-31
2023/04/25 06:00:16;;;;;;;10.85;2.15;;;;;;;-143.48;81.47;118439.88;5052673;28;20040;-32
2023/04/25 06:02:41;;;;;;;15.13;2.72;;;;;;;-143.48;70.69;118439.88;5052323;28;20115;-36
2023/04/25 06:05:08;;;;;;;13.32;2.03;;;;;;;-143.48;73.28;118439.88;5052783;28;20021;-32
2023/04/25 06:07:33;;;;;;;13.40;2.30;;;;;;;-143.48;77.48;118439.88;5053038;28;20597;-32
2023/04/25 06:10:00;;;;;;;19.83;2.83;;;;;;;-143.48;80.16;118439.88;5052401;28;20053;-31
2023/04/25 06:12:25;;;;;;;9.52;2.00;;;;;;;-143.48;79.40;118439.88;5052367;28;20025;-32
2023/04/25 06:14:51;;;;;;;7.38;1.60;;;;;;;-143.48;78.61;118439.88;5053498;28;20104;-32
2023/04/25 06:17:16;;;;;;;11.88;2.20;;;;;;;-143.48;81.39;118439.88;5056746;28;20048;-32
2023/04/25 06:19:41;;;;;;;7.95;2.05;;;;;;;-143.48;80.40;118439.88;5056435;28;20043;-32
2023/04/25 06:22:07;;;;;;;6.85;2.05;;;;;;;-143.48;78.67;118439.88;5056048;28;20025;-31
2023/04/25 06:24:33;;;;;;;12.65;2.30;;;;;;;-143.48;80.05;118439.88;5055756;28;20024;-32
2023/04/25 06:26:58;;;;;;;10.88;1.90;;;;;;;-143.48;76.81;118439.88;5056409;28;20037;-31
2023/04/25 06:29:23;;;;;;;9.18;2.00;;;;;;;-143.48;74.19;118439.88;5055948;28;20021;-32
2023/04/25 06:31:49;;;;;;;8.73;1.73;;;;;;;-143.48;69.15;118439.88;5053726;28;20480;-32
2023/04/25 06:34:15;;;;;;;12.23;2.35;;;;;;;-143.48;68.86;118439.88;5053492;28;20025;-34
2023/04/25 06:36:41;;;;;;;7.63;1.75;;;;;;;-143.48;73.63;118439.88;5053927;28;20107;-32
2023/04/25 06:39:06;;;;;;;8.48;2.17;;;;;;;-143.48;70.20;118439.88;5053554;28;20020;-32
2023/04/25 06:41:31;;;;;;;10.07;2.00;;;;;;;-143.48;68.43;118439.88;5053531;28;20568;-32
2023/04/25 06:43:57;;;;;;;7.63;1.90;;;;;;;-143.48;70.55;118439.88;5053572;28;20024;-32
2023/04/25 06:46:22;;;;;;;14.43;2.00;;;;;;;-143.48;67.26;118439.88;5055035;28;20099;-32
2023/04/25 06:48:47;;;;;;;9.93;1.98;;;;;;;-143.48;68.31;118439.88;5055481;28;20522;-33
2023/04/25 06:51:15;;;;;;;9.45;1.90;;;;;;;-143.48;72.13;118439.88;5055657;28;20110;-33
2023/04/25 06:53:41;;;;;;;11.55;2.78;;;;;;;-143.48;69.97;118439.88;5056034;28;20020;-33
2023/04/25 06:56:06;;;;;;;8.80;1.90;;;;;;;-143.48;68.27;118439.88;5055436;28;20051;-33
2023/04/25 06:58:31;;;;;;;10.90;1.75;;;;;;;-143.48;69.81;118439.88;5055587;28;20056;-33
2023/04/25 07:00:57;;;;;;;12.25;2.15;;;;;;;-143.48;71.69;118439.88;5055762;28;20107;-32
2023/04/25 07:03:22;;;;;;;14.68;1.92;;;;;;;-143.48;69.86;118439.88;5055437;28;20100;-33
2023/04/25 07:05:47;;;;;;;8.05;1.88;;;;;;;-143.48;70.63;118439.88;5055161;28;20036;-32
2023/04/25 07:08:13;;;;;;;12.25;2.25;;;;;;;-143.48;70.62;118439.88;5055390;28;20039;-33
2023/04/25 07:10:38;;;;;;;9.07;2.13;;;;;;;-143.48;70.24;118439.88;5054978;28;20053;-32
2023/04/25 07:13:03;;;;;;;16.92;2.00;;;;;;;-143.48;68.48;118439.88;5055856;28;20100;-32
2023/04/25 07:15:29;;;;;;;10.98;1.98;;;;;;;-143.48;67.60;118439.88;5055139;28;20047;-33
2023/04/25 07:17:54;;;;;;;9.75;1.83;;;;;;;-143.48;66.23;118439.88;5037038;28;20468;-33
2023/04/25 07:20:19;;;;;;;6.28;1.80;;;;;;;-143.48;63.87;118439.88;5055069;28;20020;-32
2023/04/25 07:22:45;;;;;;;13.50;1.80;;;;;;;-143.48;65.71;118439.88;5054909;28;20028;-32
2023/04/25 07:25:10;;;;;;;12.82;2.13;;;;;;;-143.48;66.27;118439.88;5055527;28;20021;-32
2023/04/25 07:27:36;;;;;;;13.57;2.00;;;;;;;-143.48;65.90;118439.88;5054341;28;20064;-33
2023/04/25 07:30:01;;;;;;;15.95;1.92;;;;;;;-143.48;69.28;118439.88;5054627;28;20024;-32
2023/04/25 07:32:26;;;;;;;9.48;1.85;;;;;;;-143.48;64.28;118439.88;5054811;28;20043;-33
2023/04/25 07:34:52;;;;;;;7.85;1.63;;;;;;;-143.48;62.34;118439.88;5054694;28;20117;-33
2023/04/25 07:37:18;;;;;;;14.10;1.90;;;;;;;-143.48;60.83;118439.88;5054492;28;20029;-33
2023/04/25 07:39:45;;;;;;;12.50;1.55;;;;;;;-143.48;59.59;118439.88;5054906;28;20050;-33
2023/04/25 07:42:11;;;;;;;7.47;1.90;;;;;;;-143.48;59.97;118439.88;5054376;28;20068;-33
2023/04/25 07:44:38;;;;;;;18.55;2.17;;;;;;;-143.48;60.40;118439.88;5054954;28;20045;-32
2023/04/25 07:47:06;;;;;;;10.75;1.95;;;;;;;-143.48;57.23;118439.88;5054715;28;20387;-32
2023/04/25 07:49:33;;;;;;;11.60;1.98;;;;;;;-143.48;54.63;118439.88;5053349;28;20025;-33
2023/04/25 07:51:58;;;;;;;8.88;2.20;;;;;;;-143.48;56.51;118439.88;5054288;28;20033;-33
2023/04/25 07:54:25;;;;;;;11.85;1.65;;;;;;;-143.48;60.41;118439.88;5053433;28;20032;-33
2023/04/25 07:56:50;;;;;;;9.63;2.22;;;;;;;-143.48;62.17;118439.88;5054315;28;20107;-32
2023/04/25 07:59:15;;;;;;;6.82;1.45;;;;;;;-143.48;62.20;118439.88;5054602;28;20025;-33
2023/04/25 08:01:40;;;;;;;10.57;1.50;;;;;;;-143.48;62.36;118439.88;5054228;28;20025;-33
2023/04/25 08:04:06;;;;;;;12.88;2.00;;;;;;;-143.48;65.40;118439.88;5054411;28;20102;-33
2023/04/25 08:06:31;;;;;;;7.20;1.40;;;;;;;-143.48;69.01;118439.88;5054230;28;20029;-33
2023/04/25 08:08:56;;;;;;;12.15;2.08;;;;;;;-143.48;70.65;118439.88;5054458;28;20021;-32
2023/04/25 08:11:21;;;;;;;9.68;1.73;;;;;;;-143.48;73.45;118439.88;5053840;28;20047;-33
2023/04/25 08:13:47;;;;;;;11.05;2.13;;;;;;;-143.48;73.03;118439.88;5053687;28;20048;-33
2023/04/25 08:16:12;;;;;;;11.20;1.42;;;;;;;-143.48;71.15;118439.88;5053518;28;20375;-33
2023/04/25 08:18:37;;;;;;;11.27;1.83;;;;;;;-143.48;65.78;118439.88;5053215;28;20029;-33
2023/04/25 08:21:03;;;;;;;9.50;2.30;;;;;;;-143.48;60.16;118439.88;5053705;28;20024;-32
2023/04/25 08:23:29;;;;;;;7.72;1.98;;;;;;;-143.48;60.59;118439.88;5053640;28;20037;-33
2023/04/25 08:25:54;;;;;;;13.32;2.00;;;;;;;-143.48;61.19;118439.88;5053547;28;20028;-33
2023/04/25 08:28:19;;;;;;;7.75;1.98;;;;;;;-143.48;56.62;118439.88;5053815;28;20171;-33
2023/04/25 08:30:44;;;;;;;12.85;2.03;;;;;;;-143.48;52.04;118439.88;5054023;28;20043;-33
2023/04/25 08:33:10;;;;;;;9.88;1.55;;;;;;;-143.48;57.65;118439.88;5053978;28;20494;-32
2023/04/25 08:35:36;;;;;;;10.70;1.75;;;;;;;-143.48;54.36;118439.88;5053770;28;20025;-33
2023/04/25 08:38:01;;;;;;;8.55;2.03;;;;;;;-143.48;52.04;118439.88;5053016;28;20030;-33
2023/04/25 08:40:31;;;;;;;6.85;1.30;;;;;;;-143.48;49.44;118439.88;5053626;28;20043;-33
2023/04/25 08:43:03;;;;;;;3.95;1.20;;;;;;;-143.48;48.75;118439.88;5053913;28;20025;-32
2023/04/25 08:45:31;;;;;;;5.95;1.23;;;;;;;-143.48;47.02;118439.88;5053753;28;20021;-32
2023/04/25 08:47:57;;;;;;;7.28;1.52;;;;;;;-143.48;45.66;118439.88;5053424;28;20147;-33
2023/04/25 08:50:23;;;;;;;4.10;1.40;;;;;;;-143.48;47.30;118439.88;5053429;28;20074;-33
2023/04/25 08:52:52;;;;;;;6.93;1.50;;;;;;;-143.48;49.98;118439.88;5053677;28;20025;-33
2023/04/25 08:55:18;;;;;;;12.02;1.58;;;;;;;-143.48;49.88;118439.88;5053553;28;20490;-33
2023/04/25 08:57:44;;;;;;;5.68;1.33;;;;;;;-143.48;48.92;118439.88;5053278;28;20124;-33
2023/04/25 09:00:12;;;;;;;8.60;1.67;;;;;;;-143.48;45.68;118439.88;5053602;28;20033;-32
2023/04/25 09:02:39;;;;;;;8.32;1.50;;;;;;;-143.48;43.33;118439.88;5053288;28;20025;-33
2023/04/25 09:05:06;;;;;;;8.35;1.70;;;;;;;-143.48;45.78;118439.88;5052186;28;20017;-32
2023/04/25 09:07:31;;;;;;;6.97;1.80;;;;;;;-143.48;47.43;118439.88;5051275;28;20025;-33
2023/04/25 09:09:59;;;;;;;8.63;1.42;;;;;;;-143.48;48.03;118439.88;5052659;28;20094;-32
2023/04/25 09:12:25;;;;;;;9.80;1.58;;;;;;;-143.48;50.43;118439.88;5050572;28;20032;-33
2023/04/25 09:15:11;;;;;;;11.40;1.63;;;;;;;-143.48;53.12;118439.88;5051084;28;20487;-32
2023/04/25 09:17:40;;;;;;;9.10;1.60;;;;;;;-143.48;54.36;118439.88;5051124;28;20056;-33
2023/04/25 09:20:11;;;;;;;10.07;1.40;;;;;;;-143.48;55.89;118439.88;5051510;28;20028;-33
2023/04/25 09:22:37;;;;;;;13.50;1.80;;;;;;;-143.48;57.60;118439.88;5051301;28;20523;-33
2023/04/25 09:25:10;;;;;;;10.35;1.63;;;;;;;-143.48;59.60;118439.88;5051226;28;20031;-33
2023/04/25 09:27:36;;;;;;;;;;;;;;;-143.48;56.69;118439.88;5053159;28;20021;-32
2023/04/25 09:30:02;;;;;;;7.32;1.40;;;;;;;-143.48;56.94;118439.88;5053132;28;19908;-33
2023/04/25 09:32:28;;;;;;;5.32;1.33;;;;;;;-143.48;55.87;118439.88;5053159;28;20021;-33
2023/04/25 09:34:55;;;;;;;9.68;1.52;;;;;;;-143.48;54.32;118439.88;5053010;28;20023;-32
2023/04/25 09:37:25;;;;;;;20.65;1.67;;;;;;;-143.48;53.28;118439.88;5052676;28;20031;-33
2023/04/25 09:39:54;;;;;;;4.60;1.30;;;;;;;-143.48;48.94;118439.88;5052695;28;20024;-33
2023/04/25 09:42:25;;;;;;;6.43;1.48;;;;;;;-143.48;47.40;118439.88;5052832;28;20044;-33
2023/04/25 09:44:53;;;;;;;6.28;1.20;;;;;;;-143.48;46.05;118439.88;5053375;28;20475;-32
2023/04/25 09:47:21;;;;;;;6.05;1.20;;;;;;;-143.48;46.00;118439.88;5052973;28;20025;-33
2023/04/25 09:49:46;;;;;;;6.93;1.58;;;;;;;-143.48;47.54;118439.88;5054046;28;20024;-33
2023/04/25 09:52:17;;;;;;;12.55;1.60;;;;;;;-143.48;46.43;118439.88;5056717;28;20402;-33
2023/04/25 09:54:47;;;;;;;7.47;1.60;;;;;;;-143.48;45.02;118439.88;5056049;28;20503;-33
2023/04/25 09:57:14;;;;;;;7.50;1.40;;;;;;;-143.48;44.45;118439.88;5056838;28;20037;-33
2023/04/25 09:59:43;;;;;;;5.15;1.40;;;;;;;-143.48;43.61;118439.88;5056554;28;20029;-33
2023/04/25 10:02:10;;;;;;;11.45;1.80;;;;;;;-143.48;43.44;118439.88;5056750;28;20052;-33
2023/04/25 10:04:36;;;;;;;11.10;1.55;;;;;;;-143.48;42.00;118439.88;5056416;28;20023;-33
2023/04/25 10:07:05;;;;;;;6.93;1.33;;;;;;;-143.48;44.23;118439.88;5056691;28;20061;-32
2023/04/25 10:09:33;;;;;;;6.57;1.88;;;;;;;-143.48;43.51;118439.88;5056733;28;20348;-33
2023/04/25 10:12:00;;;;;;;7.47;1.63;;;;;;;-143.48;43.33;118439.88;5056331;28;20072;-33
2023/04/25 10:14:26;;;;;;;7.53;1.60;;;;;;;-143.48;43.13;118439.88;5056386;28;20507;-34
2023/04/25 10:16:53;;;;;;;6.25;1.20;;;;;;;-143.48;44.77;118439.88;5056511;28;20483;-34
2023/04/25 10:19:19;;;;;;;6.70;1.55;;;;;;;-143.48;43.19;118439.88;5056259;28;20043;-33
2023/04/25 10:22:18;;;;;;;4.93;1.15;;;;;;;-143.48;42.18;118439.88;5056510;28;20147;-34
2023/04/25 10:24:46;;;;;;;8.98;1.17;;;;;;;-143.48;42.79;118439.88;5056411;28;20073;-33
2023/04/25 10:27:12;;;;;;;11.07;1.67;;;;;;;-143.48;42.25;118439.88;5056015;28;20021;-33
2023/04/25 10:29:37;;;;;;;7.72;1.20;;;;;;;-143.48;41.77;118439.88;5056336;28;20464;-34
2023/04/25 10:32:03;;;;;;;6.03;1.35;;;;;;;-143.48;41.76;118439.88;5056285;28;20037;-33
2023/04/25 10:34:39;;;;;;;9.23;1.40;;;;;;;-143.48;40.23;118439.88;5056197;28;20031;-33
2023/04/25 10:37:08;;;;;;;7.32;1.48;;;;;;;-143.48;42.15;118439.88;5037910;28;20024;-33
2023/04/25 10:39:33;;;;;;;9.57;1.63;;;;;;;-143.48;47.81;118439.88;5056376;28;20037;-33
2023/04/25 10:42:02;;;;;;;5.53;1.25;;;;;;;-143.48;53.38;118439.88;5056059;28;20032;-33
2023/04/25 10:44:31;;;;;;;6.30;1.45;;;;;;;-143.48;56.25;118439.88;5055922;28;20017;-33
2023/04/25 10:46:57;;;;;;;5.82;1.23;;;;;;;-143.48;59.32;118439.88;5056097;28;20143;-33
2023/04/25 10:49:31;;;;;;;6.10;1.10;;;;;;;-143.48;58.19;118439.88;5055901;28;20352;-33
2023/04/25 10:52:26;;;;;;;6.88;1.38;;;;;;;-143.48;59.56;118439.88;5055943;28;20099;-33
2023/04/25 10:54:54;;;;;;;6.07;1.52;;;;;;;-143.48;58.53;118439.88;5054505;28;20040;-33
2023/04/25 10:57:29;;;;;;;5.50;1.40;;;;;;;-143.48;58.98;118439.88;5055601;28;20028;-33
2023/04/25 11:00:05;;;;;;;7.30;1.30;;;;;;;-143.48;56.24;118439.88;5055684;28;20021;-33